Time;durP1;ratioP1;P1;durP2;ratioP2;P2;SDS_P1;SDS_P2;PMS_P1;PMS_P2;Temp;Humidity;BMP_temperature;BMP_pressure;BME280_temperature;BME280_humidity;BME280_pressure;Samples;Min_cycle;Max_cycle;Signal;HPM_P1;HPM_P2
2022/07/17 00:00:19;;;;;;;4.68;1.67;;;;;;;17.39;70.15;102243.91;5039900;28;20790;-70
2022/07/17 00:02:47;;;;;;;10.20;1.92;;;;;;;17.30;71.02;102235.97;5049861;28;20062;-73
2022/07/17 00:05:15;;;;;;;6.75;2.15;;;;;;;17.22;70.51;102237.19;5039003;28;20059;-72
2022/07/17 00:07:42;;;;;;;8.63;2.00;;;;;;;17.11;70.71;102235.66;5045206;28;20056;-72
2022/07/17 00:10:09;;;;;;;8.02;1.90;;;;;;;17.13;72.68;102238.81;5045900;28;20142;-72
2022/07/17 00:12:36;;;;;;;5.97;2.03;;;;;;;17.10;71.22;102239.63;5042662;28;20104;-73
2022/07/17 00:15:03;;;;;;;6.78;2.08;;;;;;;17.08;72.07;102242.84;5038093;28;20258;-72
2022/07/17 00:17:30;;;;;;;7.43;1.90;;;;;;;17.07;71.76;102240.44;5045129;28;20560;-71
2022/07/17 00:19:56;;;;;;;4.55;1.90;;;;;;;17.03;71.96;102236.88;5061317;28;20063;-72
2022/07/17 00:22:23;;;;;;;10.93;2.00;;;;;;;16.97;74.04;102230.88;5038168;28;20585;-70
2022/07/17 00:24:49;;;;;;;4.88;1.75;;;;;;;16.95;73.72;102232.50;5039508;28;20160;-71
2022/07/17 00:27:16;;;;;;;10.35;2.75;;;;;;;16.89;73.92;102228.53;5039324;28;20064;-75
2022/07/17 00:29:42;;;;;;;7.53;1.90;;;;;;;16.87;73.74;102222.56;5040326;28;20049;-72
2022/07/17 00:32:09;;;;;;;5.38;1.95;;;;;;;16.86;74.03;102220.94;5038181;28;20056;-72
2022/07/17 00:34:35;;;;;;;6.22;1.98;;;;;;;16.83;75.65;102228.16;5037050;28;20053;-72
2022/07/17 00:37:02;;;;;;;5.97;1.83;;;;;;;16.77;75.24;102240.16;5038313;28;20059;-72
2022/07/17 00:39:29;;;;;;;4.63;1.73;;;;;;;16.71;74.91;102234.16;5039797;28;20069;-72
2022/07/17 00:41:55;;;;;;;6.88;2.13;;;;;;;16.68;76.58;102240.56;5051097;28;20058;-72
2022/07/17 00:44:26;;;;;;;10.35;2.33;;;;;;;16.68;75.99;102240.56;5057423;28;20044;-71
2022/07/17 00:46:52;;;;;;;9.30;1.90;;;;;;;16.64;74.57;102250.94;5047114;28;20063;-73
2022/07/17 00:49:19;;;;;;;7.65;3.47;;;;;;;16.57;75.56;102236.97;5052914;28;20058;-72
2022/07/17 00:51:46;;;;;;;7.80;1.83;;;;;;;16.53;76.85;102238.19;5039583;28;20053;-72
2022/07/17 00:54:13;;;;;;;7.53;1.70;;;;;;;16.51;75.47;102241.41;5048634;28;20159;-73
2022/07/17 00:56:45;;;;;;;9.90;2.22;;;;;;;16.49;77.01;102240.19;5050763;28;20106;-71
2022/07/17 00:59:14;;;;;;;8.20;2.10;;;;;;;16.46;78.08;102243.78;5069891;28;20084;-72
2022/07/17 01:01:41;;;;;;;5.05;1.98;;;;;;;16.43;78.51;102241.81;5044788;28;20497;-72
2022/07/17 01:04:08;;;;;;;7.05;2.70;;;;;;;16.38;77.78;102237.38;5046295;28;20144;-72
2022/07/17 01:06:34;;;;;;;6.90;2.35;;;;;;;16.38;77.42;102233.78;5047645;28;20138;-70
2022/07/17 01:09:01;;;;;;;8.00;2.25;;;;;;;16.34;78.92;102239.41;5044847;28;20164;-71
2022/07/17 01:11:27;;;;;;;4.97;1.90;;;;;;;16.34;78.90;102241.38;5042932;28;20049;-70
2022/07/17 01:13:54;;;;;;;5.78;2.00;;;;;;;16.29;78.56;102245.38;5043219;28;20141;-71
2022/07/17 01:16:22;;;;;;;4.93;1.90;;;;;;;16.23;79.02;102235.00;5037937;28;20557;-72
2022/07/17 01:18:49;;;;;;;9.63;1.88;;;;;;;16.22;78.32;102233.38;5048083;28;20063;-71
2022/07/17 01:21:15;;;;;;;6.35;2.05;;;;;;;16.20;78.36;102246.97;5061620;28;20748;-73
2022/07/17 01:23:42;;;;;;;5.45;1.67;;;;;;;16.14;78.96;102242.97;5059865;28;20164;-70
2022/07/17 01:26:09;;;;;;;9.07;2.40;;;;;;;16.09;80.23;102241.38;5053982;28;20053;-71
2022/07/17 01:28:35;;;;;;;6.82;2.20;;;;;;;16.10;79.33;102236.59;5057437;28;20143;-70
2022/07/17 01:31:03;;;;;;;7.25;2.25;;;;;;;16.08;80.13;102230.59;5037220;28;20131;-71
2022/07/17 01:33:30;;;;;;;11.88;2.42;;;;;;;16.11;79.35;102243.78;5052667;28;20082;-72
2022/07/17 01:35:57;;;;;;;8.48;2.00;;;;;;;16.11;79.98;102243.78;5040381;28;20478;-73
2022/07/17 01:38:23;;;;;;;6.80;2.25;;;;;;;16.08;80.96;102250.16;5041328;28;20067;-71
2022/07/17 01:40:51;;;;;;;12.13;2.35;;;;;;;16.04;81.39;102235.38;5036610;28;20057;-71
2022/07/17 01:43:18;;;;;;;7.18;2.05;;;;;;;15.96;82.14;102239.38;5048651;28;20091;-71
2022/07/17 01:45:44;;;;;;;7.78;2.22;;;;;;;15.93;80.14;102237.38;5046204;28;20047;-71
2022/07/17 01:48:11;;;;;;;7.88;2.50;;;;;;;15.89;80.31;102240.16;5055249;28;20124;-69
2022/07/17 01:50:38;;;;;;;6.32;1.95;;;;;;;15.87;80.75;102238.97;5049718;28;20136;-70
2022/07/17 01:53:04;;;;;;;3.78;1.75;;;;;;;15.87;82.87;102238.97;5048176;28;20053;-71
2022/07/17 01:55:31;;;;;;;8.55;2.22;;;;;;;15.85;82.23;102233.78;5053838;28;20175;-70
2022/07/17 01:57:57;;;;;;;7.35;2.08;;;;;;;15.81;81.22;102234.97;5051781;28;20566;-70
2022/07/17 02:00:25;;;;;;;7.75;2.28;;;;;;;15.76;82.02;102229.78;5050386;28;20139;-70
2022/07/17 02:02:52;;;;;;;9.20;2.33;;;;;;;15.70;81.79;102231.38;5054500;28;20053;-70
2022/07/17 02:05:19;;;;;;;3.28;1.83;;;;;;;15.65;82.94;102223.41;5062118;28;20080;-70
2022/07/17 02:07:46;;;;;;;7.28;1.98;;;;;;;15.64;83.54;102230.97;5049463;28;20056;-70
2022/07/17 02:10:13;;;;;;;6.47;1.98;;;;;;;15.59;82.78;102220.16;5057967;28;20059;-70
2022/07/17 02:12:42;;;;;;;9.32;2.20;;;;;;;15.60;82.24;102229.34;5061830;28;20060;-69
2022/07/17 02:15:09;;;;;;;8.15;2.22;;;;;;;15.57;82.59;102231.72;5048770;28;20074;-72
2022/07/17 02:17:36;;;;;;;8.20;2.10;;;;;;;15.48;84.06;102211.78;5058505;28;20076;-70
2022/07/17 02:20:03;;;;;;;9.95;2.22;;;;;;;15.51;83.31;102226.94;5058405;28;20040;-70
2022/07/17 02:22:30;;;;;;;5.47;2.05;;;;;;;15.49;83.39;102230.13;5054174;28;20083;-70
2022/07/17 02:24:56;;;;;;;7.80;2.05;;;;;;;15.48;83.91;102229.72;5061220;28;20072;-71
2022/07/17 02:27:23;;;;;;;7.85;2.22;;;;;;;15.43;84.67;102223.31;5065157;28;20587;-70
2022/07/17 02:29:49;;;;;;;6.25;1.80;;;;;;;15.43;83.11;102234.47;5059425;28;20053;-70
2022/07/17 02:32:16;;;;;;;8.07;1.90;;;;;;;15.38;84.63;102234.06;5062687;28;20044;-69
2022/07/17 02:34:43;;;;;;;3.63;1.77;;;;;;;15.36;84.58;102230.88;5053490;28;20135;-72
2022/07/17 02:37:10;;;;;;;7.25;2.10;;;;;;;15.33;84.83;102229.63;5052677;28;20498;-72
2022/07/17 02:39:51;;;;;;;5.85;2.17;;;;;;;15.31;84.67;102228.44;5059585;28;20131;-71
2022/07/17 02:42:26;;;;;;;5.63;2.20;;;;;;;15.28;84.89;102230.03;5060623;28;20504;-71
2022/07/17 02:44:54;;;;;;;10.55;2.55;;;;;;;15.26;84.00;102231.63;5053934;28;20052;-72
2022/07/17 02:47:23;;;;;;;6.30;1.92;;;;;;;15.24;84.72;102229.22;5056424;28;20052;-68
2022/07/17 02:49:51;;;;;;;9.20;2.13;;;;;;;15.24;85.15;102240.38;5058149;28;20040;-69
2022/07/17 02:52:18;;;;;;;6.70;2.30;;;;;;;15.23;85.51;102244.34;5066750;28;20440;-73
2022/07/17 02:54:45;;;;;;;7.07;1.90;;;;;;;15.17;86.26;102245.94;5057947;28;20131;-68
2022/07/17 02:57:12;;;;;;;11.60;2.30;;;;;;;15.14;86.29;102238.34;5059865;28;20084;-71
2022/07/17 02:59:39;;;;;;;5.40;2.25;;;;;;;15.13;86.58;102233.16;5063015;28;20136;-71
2022/07/17 03:02:06;;;;;;;4.65;1.75;;;;;;;15.10;87.53;102239.50;5053001;28;20525;-73
2022/07/17 03:04:33;;;;;;;8.93;2.42;;;;;;;15.07;86.49;102229.94;5065288;28;20123;-72
2022/07/17 03:07:00;;;;;;;5.78;2.22;;;;;;;15.08;86.74;102237.13;5056843;28;20131;-67
2022/07/17 03:09:26;;;;;;;6.35;1.90;;;;;;;15.03;86.89;102231.94;5059023;28;20132;-70
2022/07/17 03:11:53;;;;;;;6.15;1.95;;;;;;;15.03;87.99;102242.28;5064983;28;20048;-70
2022/07/17 03:14:20;;;;;;;7.63;2.22;;;;;;;14.99;87.22;102233.88;5053657;28;20048;-67
2022/07/17 03:16:46;;;;;;;9.73;3.00;;;;;;;14.94;88.43;102242.63;5064110;28;20044;-72
2022/07/17 03:19:13;;;;;;;7.38;2.17;;;;;;;14.87;88.82;102231.44;5057240;28;20056;-70
2022/07/17 03:21:40;;;;;;;9.88;2.47;;;;;;;14.86;88.52;102234.63;5063230;28;20101;-67
2022/07/17 03:24:07;;;;;;;8.35;2.33;;;;;;;14.85;88.80;102239.38;5053601;28;20155;-71
2022/07/17 03:26:33;;;;;;;9.95;2.17;;;;;;;14.82;88.31;102247.72;5065914;28;20131;-71
2022/07/17 03:29:00;;;;;;;6.80;2.13;;;;;;;14.80;89.96;102256.47;5058940;28;20063;-68
2022/07/17 03:31:26;;;;;;;10.57;2.10;;;;;;;14.79;89.73;102248.50;5057781;28;20056;-70
2022/07/17 03:33:53;;;;;;;8.88;2.35;;;;;;;14.77;90.16;102262.84;5053529;28;20048;-70
2022/07/17 03:36:20;;;;;;;7.47;2.25;;;;;;;14.72;90.70;102256.81;5064591;28;20386;-68
2022/07/17 03:38:47;;;;;;;6.47;2.22;;;;;;;14.69;90.69;102261.19;5049899;28;20048;-70
2022/07/17 03:41:13;;;;;;;12.77;2.55;;;;;;;14.65;89.73;102252.00;5058447;28;20049;-70
2022/07/17 03:43:40;;;;;;;12.15;2.30;;;;;;;14.61;91.97;102255.94;5057259;28;20449;-70
2022/07/17 03:46:06;;;;;;;9.57;2.38;;;;;;;14.59;90.77;102252.75;5064711;28;20092;-70
2022/07/17 03:48:34;;;;;;;10.80;2.40;;;;;;;14.58;91.69;102253.97;5062402;28;20084;-71
2022/07/17 03:51:01;;;;;;;8.02;2.20;;;;;;;14.58;91.17;102251.16;5061306;28;20102;-70
2022/07/17 03:53:27;;;;;;;6.30;2.40;;;;;;;14.57;91.78;102258.72;5050910;28;20151;-71
2022/07/17 03:55:54;;;;;;;8.95;2.22;;;;;;;14.54;92.32;102244.75;5056152;28;20491;-70
2022/07/17 03:58:20;;;;;;;9.48;1.88;;;;;;;14.56;91.67;102247.97;5061477;28;20128;-71
2022/07/17 04:00:47;;;;;;;3.38;1.92;;;;;;;14.56;91.84;102254.34;5057310;28;20198;-71
2022/07/17 04:03:13;;;;;;;7.90;2.55;;;;;;;14.59;92.46;102259.13;5065106;28;20449;-69
2022/07/17 04:05:40;;;;;;;11.60;2.58;;;;;;;14.57;91.62;102250.34;5058840;28;20124;-72
2022/07/17 04:08:06;;;;;;;12.20;2.33;;;;;;;14.58;91.27;102257.53;5056790;28;20098;-71
2022/07/17 04:10:33;;;;;;;10.77;2.30;;;;;;;14.57;91.48;102255.94;5052611;28;20106;-69
2022/07/17 04:12:59;;;;;;;7.63;2.15;;;;;;;14.57;91.93;102263.47;5060446;28;20501;-71
2022/07/17 04:18:11;;;;;;;8.57;2.20;;;;;;;14.56;92.19;102248.78;5060665;28;20140;-69
2022/07/17 04:20:37;;;;;;;5.25;2.03;;;;;;;14.54;92.22;102251.13;5058521;28;20116;-70
2022/07/17 04:23:05;;;;;;;4.80;2.00;;;;;;;14.56;92.03;102245.19;5049892;28;20120;-68
2022/07/17 04:25:31;;;;;;;4.55;2.10;;;;;;;14.56;92.81;102248.78;5065473;28;20144;-70
2022/07/17 04:27:58;;;;;;;7.15;2.38;;;;;;;14.56;92.34;102251.56;5054255;28;20056;-70
2022/07/17 04:30:24;;;;;;;9.38;2.40;;;;;;;14.61;91.97;102253.97;5063526;28;20110;-71
2022/07/17 04:32:52;;;;;;;10.07;2.17;;;;;;;14.66;91.49;102253.63;5055630;28;20575;-70
2022/07/17 04:35:19;;;;;;;7.68;2.20;;;;;;;14.69;90.65;102252.84;5056517;28;20417;-71
2022/07/17 04:37:45;;;;;;;9.98;2.40;;;;;;;14.73;91.82;102248.09;5059501;28;20034;-70
2022/07/17 04:40:12;;;;;;;8.05;2.13;;;;;;;14.76;90.92;102246.50;5063661;28;20062;-70
2022/07/17 04:42:38;;;;;;;7.78;2.60;;;;;;;14.80;90.88;102253.69;5051293;28;20528;-70
2022/07/17 04:45:06;;;;;;;10.35;2.55;;;;;;;14.82;91.14;102250.53;5057867;28;20094;-71
2022/07/17 04:47:34;;;;;;;9.48;2.70;;;;;;;14.86;90.62;102245.75;5062143;28;20052;-70
2022/07/17 04:50:00;;;;;;;9.63;2.70;;;;;;;14.88;90.55;102249.75;5061068;28;20040;-71
2022/07/17 04:52:27;;;;;;;11.20;2.78;;;;;;;14.86;90.05;102252.16;5051417;28;20048;-71
2022/07/17 04:54:54;;;;;;;11.68;2.90;;;;;;;14.94;90.46;102258.53;5064898;28;20501;-68
2022/07/17 04:57:20;;;;;;;13.23;4.28;;;;;;;14.98;89.78;102251.78;5055390;28;20048;-70
2022/07/17 04:59:47;;;;;;;11.52;2.70;;;;;;;15.05;89.50;102262.97;5056716;28;20049;-71
2022/07/17 05:02:13;;;;;;;13.88;3.42;;;;;;;15.09;89.65;102272.16;5055946;28;20608;-70
2022/07/17 05:04:40;;;;;;;10.50;2.63;;;;;;;15.17;90.45;102284.16;5059430;28;20136;-71
2022/07/17 05:07:06;;;;;;;12.73;2.72;;;;;;;15.24;89.83;102289.75;5054205;28;20099;-71
2022/07/17 05:09:33;;;;;;;8.10;2.60;;;;;;;15.27;89.68;102289.78;5064396;28;20052;-70
2022/07/17 05:11:59;;;;;;;10.73;3.20;;;;;;;15.33;89.58;102288.19;5053079;28;20492;-71
2022/07/17 05:14:26;;;;;;;14.88;2.90;;;;;;;15.40;88.62;102298.63;5062370;28;20099;-71
2022/07/17 05:16:53;;;;;;;7.70;2.70;;;;;;;15.48;89.75;102298.28;5051791;28;20167;-69
2022/07/17 05:19:19;;;;;;;10.38;3.30;;;;;;;15.55;89.16;102294.69;5061197;28;20044;-70
2022/07/17 05:21:46;;;;;;;6.50;2.78;;;;;;;15.63;88.86;102292.75;5058401;28;20483;-69
2022/07/17 05:24:12;;;;;;;6.68;2.80;;;;;;;15.74;88.39;102301.94;5054754;28;20136;-72
2022/07/17 05:26:39;;;;;;;11.05;3.10;;;;;;;15.81;87.57;102301.94;5058704;28;20145;-71
2022/07/17 05:29:05;;;;;;;16.48;4.30;;;;;;;15.89;87.57;102301.56;5051426;28;20052;-70
2022/07/17 05:31:32;;;;;;;9.73;3.20;;;;;;;15.95;87.18;102299.19;5054311;28;20048;-70
2022/07/17 05:33:58;;;;;;;14.90;3.60;;;;;;;16.03;86.32;102298.81;5057535;28;20132;-73
2022/07/17 05:36:25;;;;;;;12.70;3.75;;;;;;;16.11;85.99;102302.41;5061386;28;20524;-71
2022/07/17 05:38:52;;;;;;;9.63;3.58;;;;;;;16.19;85.33;102292.84;5051196;28;20073;-70
2022/07/17 05:41:18;;;;;;;12.40;3.70;;;;;;;16.27;84.57;102294.44;5060798;28;20060;-70
2022/07/17 05:43:45;;;;;;;15.82;3.80;;;;;;;16.34;83.92;102286.06;5059493;28;20045;-71
2022/07/17 05:46:12;;;;;;;8.93;3.63;;;;;;;16.42;83.72;102282.06;5056893;28;20095;-69
2022/07/17 05:48:38;;;;;;;10.63;4.00;;;;;;;16.50;83.57;102290.09;5056507;28;20053;-69
2022/07/17 05:51:05;;;;;;;18.90;4.70;;;;;;;16.54;82.96;102285.28;5050216;28;20052;-72
2022/07/17 05:53:38;;;;;;;13.98;3.53;;;;;;;16.68;82.47;102295.66;5065014;28;20117;-70
2022/07/17 05:56:04;;;;;;;12.07;3.45;;;;;;;16.74;82.18;102294.06;5059862;28;20049;-70
2022/07/17 05:58:31;;;;;;;10.55;2.90;;;;;;;16.83;81.76;102288.84;5061782;28;20412;-72
2022/07/17 06:00:58;;;;;;;15.45;3.70;;;;;;;16.90;81.54;102286.03;5053950;28;20080;-71
2022/07/17 06:03:24;;;;;;;9.05;3.15;;;;;;;16.97;80.80;102288.81;5051272;28;20147;-71
2022/07/17 06:05:51;;;;;;;13.05;3.65;;;;;;;17.05;80.85;102293.97;5059685;28;20136;-71
2022/07/17 06:08:17;;;;;;;14.23;3.40;;;;;;;17.13;80.63;102289.16;5066641;28;20501;-71
2022/07/17 06:10:44;;;;;;;14.30;3.30;;;;;;;17.17;79.92;102273.97;5066909;28;20048;-71
2022/07/17 06:13:11;;;;;;;10.35;3.08;;;;;;;17.26;79.57;102285.53;5054063;28;20206;-71
2022/07/17 06:15:37;;;;;;;11.27;2.97;;;;;;;17.35;79.67;102288.69;5066265;28;20061;-71
2022/07/17 06:18:04;;;;;;;15.50;3.70;;;;;;;17.43;78.89;102279.09;5052515;28;20056;-71
2022/07/17 06:20:31;;;;;;;10.38;2.97;;;;;;;17.51;77.84;102277.03;5066547;28;20123;-70
2022/07/17 06:22:57;;;;;;;14.70;3.15;;;;;;;17.55;77.33;102275.81;5057863;28;20063;-71
2022/07/17 06:25:24;;;;;;;12.38;3.35;;;;;;;17.66;76.18;102281.38;5050783;28;20063;-72
2022/07/17 06:27:51;;;;;;;13.52;3.00;;;;;;;17.71;75.64;102278.94;5051647;28;20687;-71
2022/07/17 06:30:18;;;;;;;10.13;2.60;;;;;;;17.80;75.74;102275.69;5051795;28;20083;-71
2022/07/17 06:32:45;;;;;;;12.15;3.25;;;;;;;17.91;75.39;102284.81;5050352;28;20494;-70
2022/07/17 06:35:11;;;;;;;9.32;2.53;;;;;;;17.98;74.97;102273.56;5050470;28;20147;-70
2022/07/17 06:37:38;;;;;;;8.18;2.28;;;;;;;18.02;73.95;102274.34;5050843;28;20440;-70
2022/07/17 06:40:06;;;;;;;9.90;2.65;;;;;;;18.11;73.16;102282.28;5051600;28;20057;-71
2022/07/17 06:42:32;;;;;;;11.55;2.50;;;;;;;18.20;72.50;102297.44;5050763;28;20056;-73
2022/07/17 06:44:59;;;;;;;15.02;3.45;;;;;;;18.30;72.47;102296.56;5061638;28;20128;-70
2022/07/17 06:47:25;;;;;;;12.90;3.05;;;;;;;18.38;71.97;102289.72;5060747;28;20515;-72
2022/07/17 06:49:52;;;;;;;6.85;2.42;;;;;;;18.46;71.26;102285.63;5073245;28;20496;-71
2022/07/17 06:52:18;;;;;;;11.20;3.40;;;;;;;18.49;71.14;102287.59;5072691;28;20135;-73
2022/07/17 06:54:45;;;;;;;15.00;3.88;;;;;;;18.57;70.25;102305.97;5078094;28;20147;-71
2022/07/17 06:57:11;;;;;;;11.05;3.45;;;;;;;18.64;70.52;102303.09;5073441;28;20078;-70
2022/07/17 06:59:38;;;;;;;8.80;3.00;;;;;;;18.68;69.99;102303.06;5062004;28;20057;-70
2022/07/17 07:02:05;;;;;;;11.32;3.00;;;;;;;18.75;69.93;102298.19;5054951;28;20045;-70
2022/07/17 07:04:31;;;;;;;10.65;3.05;;;;;;;18.85;69.59;102293.66;5060559;28;20136;-69
2022/07/17 07:06:58;;;;;;;13.85;3.08;;;;;;;18.92;69.03;102286.00;5061868;28;20045;-66
2022/07/17 07:09:25;;;;;;;9.82;3.50;;;;;;;18.98;68.19;102275.91;5064298;28;20055;-68
2022/07/17 07:11:52;;;;;;;12.52;3.15;;;;;;;19.08;67.70;102277.81;5061469;28;20059;-69
2022/07/17 07:14:19;;;;;;;14.50;3.30;;;;;;;19.15;67.54;102279.72;5057847;28;20238;-70
2022/07/17 07:16:46;;;;;;;8.52;3.10;;;;;;;19.23;67.14;102284.03;5062903;28;20133;-72
2022/07/17 07:19:12;;;;;;;7.07;2.72;;;;;;;19.30;67.10;102272.78;5057386;28;20053;-70
2022/07/17 07:21:39;;;;;;;10.02;3.05;;;;;;;19.41;66.69;102270.63;5059953;28;20128;-69
2022/07/17 07:24:06;;;;;;;17.65;5.13;;;;;;;19.47;66.52;102266.91;5053160;28;20059;-71
2022/07/17 07:26:32;;;;;;;11.13;3.22;;;;;;;19.57;65.79;102262.34;5065476;28;20109;-70
2022/07/17 07:28:59;;;;;;;10.30;3.20;;;;;;;19.67;65.06;102278.25;5053165;28;20061;-69
2022/07/17 07:31:26;;;;;;;12.38;3.38;;;;;;;19.72;64.90;102283.44;5055685;28;20044;-71
2022/07/17 07:33:53;;;;;;;10.98;3.08;;;;;;;19.81;64.59;102273.25;5053191;28;20051;-69
2022/07/17 07:36:19;;;;;;;17.48;4.00;;;;;;;19.90;63.43;102278.34;5058302;28;20055;-69
2022/07/17 07:38:50;;;;;;;14.25;3.45;;;;;;;19.94;63.25;102287.50;5060626;28;20055;-69
2022/07/17 07:41:17;;;;;;;11.43;3.33;;;;;;;19.95;63.74;102277.88;5054584;28;20567;-70
2022/07/17 07:43:43;;;;;;;11.85;3.15;;;;;;;20.01;63.40;102293.81;5068135;28;20056;-70
2022/07/17 07:46:10;;;;;;;12.70;3.28;;;;;;;20.12;63.19;102293.69;5060256;28;20052;-70
2022/07/17 07:48:36;;;;;;;12.73;3.58;;;;;;;20.26;63.29;102299.88;5052847;28;20417;-70
2022/07/17 07:51:03;;;;;;;9.52;2.90;;;;;;;20.41;62.49;102302.47;5060086;28;20209;-71
2022/07/17 07:53:30;;;;;;;9.70;2.90;;;;;;;20.51;61.67;102301.50;5057211;28;20143;-69
2022/07/17 07:55:57;;;;;;;8.40;2.95;;;;;;;20.55;60.73;102311.44;5061471;28;20049;-71
2022/07/17 07:58:24;;;;;;;7.47;2.30;;;;;;;20.58;60.78;102307.78;5061137;28;20135;-66
2022/07/17 08:00:50;;;;;;;11.10;2.95;;;;;;;20.66;60.00;102311.28;5052888;28;20087;-68
2022/07/17 08:03:17;;;;;;;9.93;2.95;;;;;;;20.80;59.87;102316.66;5049482;28;20468;-69
2022/07/17 08:05:50;;;;;;;12.68;3.35;;;;;;;20.83;59.54;102310.16;5057842;28;20057;-68
2022/07/17 08:08:17;;;;;;;9.95;2.88;;;;;;;20.91;59.46;102315.22;5055779;28;20076;-71
2022/07/17 08:10:43;;;;;;;8.80;3.42;;;;;;;21.04;59.44;102309.78;5064849;28;20083;-66
2022/07/17 08:13:10;;;;;;;10.32;2.40;;;;;;;21.17;58.22;102308.75;5059626;28;20054;-68
2022/07/17 08:15:37;;;;;;;12.95;2.38;;;;;;;21.31;57.82;102313.28;5055010;28;20098;-69
2022/07/17 08:18:03;;;;;;;12.43;2.50;;;;;;;21.41;56.71;102320.72;5056001;28;20043;-69
2022/07/17 08:20:30;;;;;;;8.20;2.22;;;;;;;21.45;55.85;102318.63;5060113;28;20041;-68
2022/07/17 08:22:56;;;;;;;8.80;2.10;;;;;;;21.56;55.44;102322.81;5060586;28;20056;-70
2022/07/17 08:25:33;;;;;;;12.68;2.20;;;;;;;21.69;54.11;102323.72;5049923;28;20110;-70
2022/07/17 08:28:02;;;;;;;9.38;2.45;;;;;;;21.83;53.82;102325.47;5061684;28;20040;-71
2022/07/17 08:30:31;;;;;;;9.85;2.25;;;;;;;21.87;53.45;102334.66;5057058;28;20056;-71
2022/07/17 08:32:58;;;;;;;6.70;1.77;;;;;;;21.68;50.52;102332.63;5054862;28;20052;-70
2022/07/17 08:35:24;;;;;;;8.15;1.83;;;;;;;21.73;51.65;102324.47;5050623;28;20512;-74
2022/07/17 08:37:52;;;;;;;6.85;1.85;;;;;;;21.87;51.93;102324.16;5055277;28;20443;-70
2022/07/17 08:40:27;;;;;;;5.13;1.58;;;;;;;22.00;50.85;102315.84;5058097;28;20516;-71
2022/07/17 08:42:56;;;;;;;8.65;2.05;;;;;;;22.02;51.17;102316.19;5058620;28;20076;-71
2022/07/17 08:45:23;;;;;;;9.32;1.88;;;;;;;22.00;51.01;102325.06;5054480;28;20509;-71
2022/07/17 08:47:51;;;;;;;9.30;1.85;;;;;;;22.04;51.27;102317.31;5057144;28;20049;-69
2022/07/17 08:50:23;;;;;;;9.35;2.00;;;;;;;22.18;50.65;102324.66;5063204;28;20140;-69
2022/07/17 08:52:50;;;;;;;7.22;1.90;;;;;;;22.29;50.87;102317.53;5048050;28;20091;-69
2022/07/17 08:55:16;;;;;;;10.52;1.77;;;;;;;22.41;50.84;102318.88;5058950;28;20064;-71
2022/07/17 08:57:44;;;;;;;10.20;1.60;;;;;;;22.45;50.05;102319.56;5057072;28;20055;-69
2022/07/17 09:00:15;;;;;;;6.93;1.55;;;;;;;22.58;49.39;102323.31;5063032;28;20640;-71
2022/07/17 09:03:02;;;;;;;7.18;1.60;;;;;;;22.65;47.54;102321.06;5058845;28;20056;-66
2022/07/17 09:05:31;;;;;;;11.07;1.70;;;;;;;22.74;48.21;102314.81;5061933;28;20052;-71
2022/07/17 09:07:59;;;;;;;6.28;1.38;;;;;;;22.85;47.96;102306.88;5047644;28;20048;-72
2022/07/17 09:10:36;;;;;;;7.53;1.83;;;;;;;22.97;46.56;102308.94;5051991;28;20056;-71
2022/07/17 09:13:22;;;;;;;12.82;2.10;;;;;;;23.09;46.09;102310.25;5049205;28;20048;-70
2022/07/17 09:15:56;;;;;;;9.93;1.73;;;;;;;23.31;46.51;102303.59;5050681;28;20090;-72
2022/07/17 09:18:24;;;;;;;7.07;1.55;;;;;;;23.28;45.25;102315.00;5050379;28;20048;-71
2022/07/17 09:20:56;;;;;;;6.80;2.20;;;;;;;23.07;44.01;102310.69;5050333;28;20098;-69
2022/07/17 09:23:25;;;;;;;9.75;1.90;;;;;;;23.17;45.83;102305.97;5051106;28;20059;-72
2022/07/17 09:25:56;;;;;;;8.88;1.67;;;;;;;23.26;45.00;102300.50;5048769;28;20044;-70
2022/07/17 09:28:23;;;;;;;8.02;1.60;;;;;;;23.32;44.86;102299.50;5050415;28;20151;-70
2022/07/17 09:30:53;;;;;;;6.28;1.65;;;;;;;23.48;45.21;102302.28;5047805;28;20053;-69
2022/07/17 09:33:23;;;;;;;8.55;1.90;;;;;;;23.67;45.08;102295.66;5060491;28;20057;-67
2022/07/17 09:35:52;;;;;;;10.68;1.60;;;;;;;23.78;43.96;102295.31;5060917;28;22002;-68
2022/07/17 09:38:26;;;;;;;7.28;1.98;;;;;;;23.90;43.55;102292.50;5056171;28;20533;-66
2022/07/17 09:41:17;;;;;;;8.57;1.70;;;;;;;23.92;42.36;102294.88;5056696;28;20135;-66
2022/07/17 09:43:50;;;;;;;7.03;1.60;;;;;;;24.02;42.90;102291.75;5054190;28;20364;-67
2022/07/17 09:46:20;;;;;;;6.07;1.73;;;;;;;24.22;42.93;102289.47;5057154;28;20048;-72
2022/07/17 09:48:50;;;;;;;6.93;1.88;;;;;;;24.43;42.91;102297.25;5060040;28;20052;-70
2022/07/17 09:51:20;;;;;;;9.18;1.90;;;;;;;24.56;42.44;102286.69;5047827;28;20092;-71
2022/07/17 09:53:49;;;;;;;6.00;1.75;;;;;;;24.62;41.92;102286.91;5062280;28;20428;-69
2022/07/17 09:56:18;;;;;;;7.65;1.73;;;;;;;24.72;41.97;102291.44;5051738;28;20053;-71
2022/07/17 09:58:53;;;;;;;6.63;2.38;;;;;;;24.84;42.03;102285.72;5051105;28;20080;-69
2022/07/17 10:01:20;;;;;;;7.13;1.80;;;;;;;24.98;42.32;102285.22;5050270;28;20234;-73
2022/07/17 10:03:53;;;;;;;8.10;1.75;;;;;;;25.08;41.33;102295.38;5053844;28;20048;-73
2022/07/17 10:06:24;;;;;;;7.72;1.60;;;;;;;25.17;41.22;102295.44;5057913;28;20109;-70
2022/07/17 10:08:53;;;;;;;8.57;1.75;;;;;;;25.14;40.93;102296.38;5055730;28;20045;-70
2022/07/17 10:11:22;;;;;;;9.07;2.58;;;;;;;25.24;41.01;102300.06;5059899;28;20067;-70
2022/07/17 10:13:51;;;;;;;6.07;1.63;;;;;;;25.11;40.23;102302.94;5053923;28;20064;-73
2022/07/17 10:16:25;;;;;;;7.15;1.55;;;;;;;25.29;40.09;102301.50;5057026;28;20079;-73
2022/07/17 10:18:55;;;;;;;6.90;1.77;;;;;;;25.44;40.56;102306.22;5060161;28;20052;-73
2022/07/17 10:21:22;;;;;;;8.32;1.65;;;;;;;25.51;39.99;102305.94;5054843;28;20705;-72
2022/07/17 10:23:52;;;;;;;8.98;2.05;;;;;;;25.69;39.09;102306.06;5059424;28;20064;-72
2022/07/17 10:26:31;;;;;;;9.15;1.83;;;;;;;25.79;38.59;102299.19;5059418;28;20063;-74
2022/07/17 10:28:58;;;;;;;8.50;1.88;;;;;;;25.94;39.00;102305.06;5058682;28;20114;-73
2022/07/17 10:31:27;;;;;;;6.50;1.90;;;;;;;25.81;37.75;102304.41;5055412;28;20114;-71
2022/07/17 10:33:56;;;;;;;8.18;2.10;;;;;;;25.88;38.33;102307.72;5054907;28;20074;-75
2022/07/17 10:36:52;;;;;;;11.25;1.88;;;;;;;26.03;36.48;102297.44;5044216;28;20056;-73
2022/07/17 10:39:20;;;;;;;10.32;1.50;;;;;;;26.15;37.29;102298.59;5046996;28;20058;-70
2022/07/17 10:41:58;;;;;;;5.60;1.30;;;;;;;26.46;36.67;102288.72;5049820;28;20746;-71
2022/07/17 10:44:26;;;;;;;4.68;1.50;;;;;;;26.59;36.35;102285.78;5059914;28;20045;-69
2022/07/17 10:46:54;;;;;;;6.80;1.50;;;;;;;26.61;35.37;102286.91;5050889;28;20151;-70
2022/07/17 10:49:22;;;;;;;4.22;1.45;;;;;;;26.63;35.03;102292.13;5050911;28;20041;-69
2022/07/17 10:51:50;;;;;;;6.35;1.48;;;;;;;26.52;35.06;102294.59;5049936;28;20441;-69
2022/07/17 10:54:18;;;;;;;9.15;1.70;;;;;;;26.28;34.52;102299.25;5050865;28;20057;-68
2022/07/17 10:56:45;;;;;;;7.43;1.55;;;;;;;26.25;35.35;102294.53;5051180;28;20537;-69
2022/07/17 10:59:12;;;;;;;6.38;1.70;;;;;;;26.51;35.73;102282.44;5050687;28;20049;-69
2022/07/17 11:01:39;;;;;;;8.50;1.60;;;;;;;26.81;35.18;102289.28;5050547;28;20096;-69
2022/07/17 11:04:06;;;;;;;8.75;1.92;;;;;;;27.01;34.84;102286.78;5050730;28;20056;-71
2022/07/17 11:06:35;;;;;;;7.93;1.88;;;;;;;27.01;34.34;102292.47;5071316;28;20059;-70
2022/07/17 11:09:12;;;;;;;3.80;1.40;;;;;;;27.09;33.28;102286.00;5083833;28;20041;-70
2022/07/17 11:11:41;;;;;;;6.00;1.50;;;;;;;27.32;34.03;102285.38;5050535;28;20060;-69
2022/07/17 11:14:14;;;;;;;6.32;1.52;;;;;;;27.56;33.47;102284.69;5051224;28;20084;-69
2022/07/17 11:16:49;;;;;;;8.60;1.63;;;;;;;27.60;32.96;102286.09;5051915;28;20111;-70
2022/07/17 11:19:30;;;;;;;7.07;1.70;;;;;;;27.78;33.12;102282.41;5058541;28;20056;-68
2022/07/17 11:21:59;;;;;;;5.18;1.42;;;;;;;27.91;33.22;102283.81;5049592;28;20504;-71
2022/07/17 11:24:39;;;;;;;6.95;1.50;;;;;;;27.98;32.41;102280.63;5071132;28;20822;-67
2022/07/17 11:27:06;;;;;;;9.43;1.65;;;;;;;28.09;32.94;102283.72;5048782;28;20509;-73